Time;durP1;ratioP1;P1;durP2;ratioP2;P2;SDS_P1;SDS_P2;PMS_P1;PMS_P2;Temp;Humidity;BMP_temperature;BMP_pressure;BME280_temperature;BME280_humidity;BME280_pressure;Samples;Min_cycle;Max_cycle;Signal;HPM_P1;HPM_P2
2021/12/25 00:01:22;;;;;;;;;;;;;;;6.65;74.62;98836.75;4422708;32;34618;-63
2021/12/25 00:03:50;;;;;;;;;;;;;;;5.82;76.30;98844.88;4423795;32;33501;-63
2021/12/25 00:06:18;;;;;;;;;;;;;;;6.39;73.90;98845.84;4425842;32;33111;-63
2021/12/25 00:08:45;;;;;;;;;;;;;;;6.58;73.73;98834.69;4423906;32;33782;-63
2021/12/25 00:11:13;;;;;;;;;;;;;;;6.27;75.79;98835.87;4439573;32;34589;-63
2021/12/25 00:13:40;;;;;;;;;;;;;;;5.77;77.56;98843.75;4439489;32;32801;-63
2021/12/25 00:16:07;;;;;;;;;;;;;;;6.28;75.55;98834.22;4439199;32;33841;-64
2021/12/25 00:18:35;;;;;;;;;;;;;;;6.70;74.00;98852.38;4424749;32;34044;-63
2021/12/25 00:21:03;;;;;;;;;;;;;;;5.80;77.30;98844.78;4439081;32;33487;-64
2021/12/25 00:23:30;;;;;;;;;;;;;;;5.58;78.10;98853.16;4438921;32;32945;-63
2021/12/25 00:26:12;;;;;;;;;;;;;;;4.38;84.14;98846.97;4439649;32;32549;-64
2021/12/25 00:36:13;;;;;;;;;;;;;;;4.24;87.74;98858.19;4440704;32;34072;-63
2021/12/25 00:38:43;;;;;;;;;;;;;;;4.27;88.17;98858.34;4439897;32;33727;-63
2021/12/25 00:41:12;;;;;;;;;;;;;;;4.56;87.55;98864.16;4438631;32;34915;-63
2021/12/25 00:43:39;;;;;;;;;;;;;;;4.67;86.40;98856.22;4438435;32;32097;-63
2021/12/25 00:46:06;;;;;;;;;;;;;;;5.05;84.95;98854.75;4438642;32;33794;-64
2021/12/25 00:48:34;;;;;;;;;;;;;;;6.06;80.31;98869.19;4438807;32;34332;-63
2021/12/25 00:51:01;;;;;;;;;;;;;;;6.12;77.65;98857.44;4425310;32;33443;-63
2021/12/25 00:53:28;;;;;;;;;;;;;;;6.69;77.14;98859.22;4438210;32;31839;-64
2021/12/25 00:55:56;;;;;;;;;;;;;;;6.36;76.82;98860.28;4437533;32;33314;-64
2021/12/25 00:58:23;;;;;;;;;;;;;;;6.02;78.02;98869.84;4438507;32;32884;-64
2021/12/25 01:00:51;;;;;;;;;;;;;;;6.45;76.47;98866.72;4439101;32;34064;-64
2021/12/25 01:03:19;;;;;;;;;;;;;;;5.72;77.95;98870.09;4438149;32;32804;-63
2021/12/25 01:05:46;;;;;;;;;;;;;;;5.23;82.20;98865.06;4438393;32;34098;-63
2021/12/25 01:08:14;;;;;;;;;;;;;;;5.12;83.00;98866.25;4438678;32;34279;-63
2021/12/25 01:10:41;;;;;;;;;;;;;;;5.96;78.92;98877.25;4438218;32;34840;-64
2021/12/25 01:13:20;;;;;;;;;;;;;;;5.54;80.75;98884.59;4425653;32;31525;-63
2021/12/25 01:35:01;;;;;;;;;;;;;;;6.52;77.57;98885.00;4441680;32;33229;-64
2021/12/25 01:48:40;;;;;;;;;;;;;;;7.05;74.21;98894.25;4437879;32;34844;-64
2021/12/25 01:51:07;;;;;;;;;;;;;;;7.72;72.61;98890.22;4439315;32;33862;-64
2021/12/25 01:53:34;;;;;;;;;;;;;;;7.29;73.63;98900.47;4439390;32;34409;-64
2021/12/25 01:56:03;;;;;;;;;;;;;;;7.38;73.43;98899.09;4438061;32;33468;-63
2021/12/25 01:58:32;;;;;;;;;;;;;;;7.47;72.83;98897.81;4424668;32;33658;-64
2021/12/25 02:00:59;;;;;;;;;;;;;;;7.80;72.14;98904.31;4426261;32;34200;-63
2021/12/25 02:03:27;;;;;;;;;;;;;;;6.82;74.53;98904.44;4442566;32;33531;-63
2021/12/25 02:05:56;;;;;;;;;;;;;;;6.88;74.16;98896.97;4440161;32;34948;-64
2021/12/25 02:08:24;;;;;;;;;;;;;;;6.98;73.65;98898.25;4439587;32;33650;-63
2021/12/25 02:10:52;;;;;;;;;;;;;;;7.20;72.94;98887.19;4439980;32;34079;-63
2021/12/25 02:13:20;;;;;;;;;;;;;;;7.91;71.07;98887.59;4440193;32;33590;-64
2021/12/25 02:15:51;;;;;;;;;;;;;;;7.60;71.88;98885.44;4426881;32;31922;-63
2021/12/25 02:18:28;;;;;;;;;;;;;;;7.12;73.10;98890.25;4440793;32;34200;-64
2021/12/25 02:21:12;;;;;;;;;;;;;;;6.60;75.20;98893.97;4440047;32;34151;-63
2021/12/25 02:23:39;;;;;;;;;;;;;;;6.53;75.96;98886.75;4441066;32;32848;-63
2021/12/25 02:26:07;;;;;;;;;;;;;;;6.76;75.48;98888.72;4427709;32;34086;-64
2021/12/25 02:28:35;;;;;;;;;;;;;;;6.39;76.58;98889.56;4439909;32;34105;-63
2021/12/25 02:31:06;;;;;;;;;;;;;;;5.92;78.82;98888.19;4439910;32;33984;-64
2021/12/25 02:33:34;;;;;;;;;;;;;;;5.62;80.44;98884.97;4440064;32;32573;-63
2021/12/25 02:36:03;;;;;;;;;;;;;;;5.77;79.74;98884.88;4440418;32;32738;-63
2021/12/25 02:38:31;;;;;;;;;;;;;;;6.13;78.53;98880.66;4440871;32;33398;-64
2021/12/25 02:40:58;;;;;;;;;;;;;;;6.33;78.14;98889.28;4439388;32;34724;-63
2021/12/25 02:43:25;;;;;;;;;;;;;;;6.38;78.03;98877.53;4439870;32;35102;-63
2021/12/25 02:45:54;;;;;;;;;;;;;;;5.70;80.20;98879.44;4439286;32;32483;-63
2021/12/25 02:48:22;;;;;;;;;;;;;;;5.64;80.67;98881.69;4439978;32;34291;-63
2021/12/25 02:50:49;;;;;;;;;;;;;;;5.45;81.44;98876.47;4439041;32;34535;-63
2021/12/25 02:53:17;;;;;;;;;;;;;;;5.40;82.02;98877.91;4439688;32;33940;-64
2021/12/25 02:55:44;;;;;;;;;;;;;;;5.31;83.25;98881.78;4438963;32;32960;-63
2021/12/25 02:58:12;;;;;;;;;;;;;;;5.61;81.27;98889.25;4438682;32;33685;-64
2021/12/25 03:00:44;;;;;;;;;;;;;;;5.33;82.48;98886.97;4441811;32;34868;-63
2021/12/25 03:03:11;;;;;;;;;;;;;;;4.83;84.48;98877.53;4426407;32;35229;-64
2021/12/25 03:05:38;;;;;;;;;;;;;;;4.77;84.58;98888.41;4438832;32;34004;-63
2021/12/25 03:08:07;;;;;;;;;;;;;;;4.91;84.26;98877.16;4439129;32;33597;-64
2021/12/25 03:10:35;;;;;;;;;;;;;;;4.75;85.32;98877.12;4438709;32;33770;-63
2021/12/25 03:15:55;;;;;;;;;;;;;;;4.37;87.15;98883.69;4438402;32;34287;-63
2021/12/25 03:18:35;;;;;;;;;;;;;;;4.98;84.68;98878.34;4439312;32;33817;-63
2021/12/25 03:21:03;;;;;;;;;;;;;;;5.23;83.56;98872.78;4439324;32;33909;-63
2021/12/25 03:23:31;;;;;;;;;;;;;;;4.81;83.65;98874.94;4438730;32;32759;-63
2021/12/25 03:25:59;;;;;;;;;;;;;;;4.38;85.33;98876.88;4439116;32;32591;-63
2021/12/25 03:28:30;;;;;;;;;;;;;;;4.25;86.45;98890.69;4424124;32;34159;-63
2021/12/25 03:31:00;;;;;;;;;;;;;;;4.02;86.75;98885.19;4429436;32;34070;-63
2021/12/25 03:33:28;;;;;;;;;;;;;;;3.73;88.49;98893.81;4439668;32;35937;-63
2021/12/25 03:35:55;;;;;;;;;;;;;;;3.62;89.11;98885.50;4439652;32;33289;-63
2021/12/25 03:38:22;;;;;;;;;;;;;;;3.54;89.90;98886.75;4439354;32;34023;-63
2021/12/25 03:40:50;;;;;;;;;;;;;;;3.61;88.57;98896.56;4439240;32;34125;-63
2021/12/25 03:43:18;;;;;;;;;;;;;;;3.69;87.49;98908.12;4438524;32;35522;-63
2021/12/25 03:45:45;;;;;;;;;;;;;;;4.87;83.94;98905.16;4439425;32;34028;-63
2021/12/25 03:48:27;;;;;;;;;;;;;;;5.31;80.42;98903.97;4438583;32;33697;-63
2021/12/25 03:59:06;;;;;;;;;;;;;;;6.30;75.56;98926.03;4424707;32;34347;-63
2021/12/25 04:04:25;;;;;;;;;;;;;;;5.08;80.36;98936.16;4449068;32;34016;-63
2021/12/25 04:09:41;;;;;;;;;;;;;;;4.67;82.02;98937.44;4434069;32;34366;-63
2021/12/25 04:12:10;;;;;;;;;;;;;;;4.30;83.98;98943.09;4454409;32;33909;-63
2021/12/25 04:14:38;;;;;;;;;;;;;;;4.19;85.83;98936.50;4446455;32;33912;-63
2021/12/25 04:17:05;;;;;;;;;;;;;;;4.03;86.65;98940.75;4445630;32;34432;-63
2021/12/25 04:19:33;;;;;;;;;;;;;;;4.28;86.30;98942.16;4447723;32;34118;-63
2021/12/25 04:22:05;;;;;;;;;;;;;;;4.72;84.39;98941.13;4444807;32;35007;-63
2021/12/25 04:24:36;;;;;;;;;;;;;;;4.80;84.46;98939.84;4452157;32;34590;-63
2021/12/25 04:27:06;;;;;;;;;;;;;;;5.79;80.55;98944.91;4452260;32;33481;-63
2021/12/25 04:29:41;;;;;;;;;;;;;;;6.33;77.51;98939.84;4448168;32;33145;-64
2021/12/25 04:32:40;;;;;;;;;;;;;;;6.66;76.13;98940.56;4453893;32;33789;-64
2021/12/25 05:05:28;;;;;;;;;;;;;;;5.29;81.04;98910.72;4445811;32;33328;-64
2021/12/25 05:07:57;;;;;;;;;;;;;;;4.98;82.08;98909.13;4444337;32;33318;-64
2021/12/25 05:10:24;;;;;;;;;;;;;;;4.39;84.45;98920.53;4449547;32;33319;-63
2021/12/25 05:12:52;;;;;;;;;;;;;;;4.40;85.09;98921.41;4449982;32;33890;-63
2021/12/25 05:15:19;;;;;;;;;;;;;;;4.86;83.31;98914.50;4436566;32;32712;-63
2021/12/25 05:17:47;;;;;;;;;;;;;;;5.27;81.22;98910.69;4449599;32;34161;-63
2021/12/25 05:20:14;;;;;;;;;;;;;;;5.27;81.27;98910.69;4450674;32;33929;-63
2021/12/25 05:22:41;;;;;;;;;;;;;;;4.61;84.42;98920.03;4429270;32;31396;-63
2021/12/25 05:25:10;;;;;;;;;;;;;;;4.55;85.28;98926.50;4430375;32;34731;-63
2021/12/25 05:27:38;;;;;;;;;;;;;;;4.48;84.29;98926.19;4451479;32;34429;-63
2021/12/25 05:30:06;;;;;;;;;;;;;;;4.33;84.02;98935.59;4449609;32;34077;-63
2021/12/25 05:32:34;;;;;;;;;;;;;;;3.90;85.55;98938.28;4424369;32;34681;-63
2021/12/25 05:35:01;;;;;;;;;;;;;;;3.80;86.08;98936.00;4445357;32;33930;-63
2021/12/25 05:37:29;;;;;;;;;;;;;;;3.78;86.39;98932.47;4453304;32;34247;-63
2021/12/25 05:39:57;;;;;;;;;;;;;;;3.87;87.03;98933.87;4453343;32;34076;-63
2021/12/25 05:42:24;;;;;;;;;;;;;;;4.16;86.07;98926.09;4452134;32;34273;-63
2021/12/25 05:44:53;;;;;;;;;;;;;;;4.79;82.84;98932.97;4451667;32;34174;-63
2021/12/25 05:47:21;;;;;;;;;;;;;;;4.82;82.32;98928.00;4447370;32;34233;-63
2021/12/25 05:49:49;;;;;;;;;;;;;;;4.57;83.12;98935.16;4443630;32;34549;-63
2021/12/25 05:52:16;;;;;;;;;;;;;;;4.10;84.61;98939.44;4450812;32;34784;-63
2021/12/25 05:54:43;;;;;;;;;;;;;;;3.85;85.69;98934.59;4453284;32;33574;-64
2021/12/25 05:57:11;;;;;;;;;;;;;;;3.97;85.49;98939.53;4447879;32;34891;-63
2021/12/25 05:59:39;;;;;;;;;;;;;;;3.97;85.73;98945.53;4448443;32;33349;-63
2021/12/25 06:02:07;;;;;;;;;;;;;;;3.78;86.38;98945.28;4445015;32;34162;-63
2021/12/25 06:04:35;;;;;;;;;;;;;;;3.81;85.90;98940.34;4449984;32;34824;-63
2021/12/25 06:07:02;;;;;;;;;;;;;;;3.79;86.09;98939.38;4447966;32;34721;-63
2021/12/25 06:09:30;;;;;;;;;;;;;;;3.66;86.63;98937.78;4447481;32;33338;-63
2021/12/25 06:11:57;;;;;;;;;;;;;;;3.34;87.49;98950.47;4449209;32;34198;-63
2021/12/25 06:14:24;;;;;;;;;;;;;;;3.22;87.83;98952.28;4448077;32;34822;-63
2021/12/25 06:16:53;;;;;;;;;;;;;;;3.21;87.85;98960.75;4437482;32;34641;-63
2021/12/25 06:19:22;;;;;;;;;;;;;;;3.30;87.80;98951.09;4448355;32;32910;-63
2021/12/25 06:21:50;;;;;;;;;;;;;;;3.42;87.49;98950.00;4450347;32;34016;-63
2021/12/25 06:24:17;;;;;;;;;;;;;;;3.62;86.86;98956.31;4454309;32;34934;-63
2021/12/25 06:26:45;;;;;;;;;;;;;;;3.62;86.70;98964.87;4453099;32;34265;-63
2021/12/25 06:29:19;;;;;;;;;;;;;;;3.60;87.08;98957.91;4448128;32;33224;-63
2021/12/25 06:31:47;;;;;;;;;;;;;;;3.74;86.65;98963.03;4451558;32;34033;-63
2021/12/25 06:34:14;;;;;;;;;;;;;;;3.81;86.33;98973.66;4441506;32;34883;-63
2021/12/25 06:36:42;;;;;;;;;;;;;;;3.77;86.47;98982.84;4442502;32;34184;-63
2021/12/25 06:39:14;;;;;;;;;;;;;;;3.64;86.65;98980.34;4438850;32;31896;-63
2021/12/25 06:41:42;;;;;;;;;;;;;;;3.79;86.79;98972.69;4449913;32;32968;-63
2021/12/25 06:44:11;;;;;;;;;;;;;;;3.70;87.66;98976.44;4429721;32;34472;-63
2021/12/25 06:46:39;;;;;;;;;;;;;;;3.99;86.06;98979.81;4450224;32;34730;-63
2021/12/25 06:49:07;;;;;;;;;;;;;;;3.79;87.50;98985.50;4435252;32;33118;-63
2021/12/25 06:51:35;;;;;;;;;;;;;;;3.74;87.87;98992.88;4446914;32;34605;-63
2021/12/25 06:54:04;;;;;;;;;;;;;;;3.86;86.07;98992.72;4445933;32;34308;-63
2021/12/25 06:56:32;;;;;;;;;;;;;;;4.27;83.54;98992.53;4435514;32;34163;-63
2021/12/25 06:59:00;;;;;;;;;;;;;;;4.83;81.07;98993.91;4432164;32;33883;-63
2021/12/25 07:01:27;;;;;;;;;;;;;;;4.01;82.72;98996.16;4447698;32;34084;-63
2021/12/25 07:03:55;;;;;;;;;;;;;;;4.64;81.39;98998.84;4442756;32;34560;-63
2021/12/25 07:06:27;;;;;;;;;;;;;;;5.62;76.58;99004.06;4452868;32;32195;-64
2021/12/25 07:08:56;;;;;;;;;;;;;;;5.86;75.27;98998.41;4451485;32;33239;-63
2021/12/25 07:11:27;;;;;;;;;;;;;;;5.80;74.91;98998.97;4447404;32;34589;-63
2021/12/25 07:13:56;;;;;;;;;;;;;;;5.45;75.64;99015.16;4451695;32;34107;-63
2021/12/25 07:16:28;;;;;;;;;;;;;;;5.71;74.64;99019.06;4447541;32;34226;-63
2021/12/25 07:18:56;;;;;;;;;;;;;;;6.02;73.43;99013.81;4449202;32;34049;-63
2021/12/25 07:21:30;;;;;;;;;;;;;;;5.99;73.63;99015.34;4450654;32;34922;-63
2021/12/25 07:23:58;;;;;;;;;;;;;;;6.40;72.45;99019.97;4438901;32;33052;-63
2021/12/25 07:26:27;;;;;;;;;;;;;;;6.39;72.56;99015.63;4444245;32;34279;-63
2021/12/25 07:28:55;;;;;;;;;;;;;;;6.39;72.77;99015.63;4447187;32;33693;-63
2021/12/25 07:31:22;;;;;;;;;;;;;;;6.63;72.16;99017.63;4443449;32;34136;-63
2021/12/25 07:33:50;;;;;;;;;;;;;;;6.83;71.11;99011.72;4449559;32;34032;-64
2021/12/25 07:36:17;;;;;;;;;;;;;;;6.60;71.74;99013.19;4445539;32;34290;-64
2021/12/25 07:38:44;;;;;;;;;;;;;;;5.93;74.53;99015.00;4445223;32;33225;-64
2021/12/25 07:41:11;;;;;;;;;;;;;;;5.10;77.46;99021.88;4435242;32;33979;-64
2021/12/25 07:43:39;;;;;;;;;;;;;;;4.76;79.42;99024.28;4446530;32;33911;-64
2021/12/25 07:46:08;;;;;;;;;;;;;;;5.02;79.04;99035.97;4434015;32;34113;-64
2021/12/25 07:48:36;;;;;;;;;;;;;;;4.94;79.60;99032.97;4451962;32;32886;-64
2021/12/25 07:51:03;;;;;;;;;;;;;;;5.38;77.84;99023.34;4452425;32;34906;-64
2021/12/25 07:53:31;;;;;;;;;;;;;;;5.18;78.98;99040.25;4440592;32;34153;-64
2021/12/25 07:55:58;;;;;;;;;;;;;;;6.34;73.98;99034.22;4439342;32;33930;-63
2021/12/25 07:58:26;;;;;;;;;;;;;;;5.20;78.06;99029.25;4451744;32;34025;-64
2021/12/25 08:00:53;;;;;;;;;;;;;;;5.13;79.00;99038.31;4423680;32;34418;-66
2021/12/25 08:03:21;;;;;;;;;;;;;;;4.85;80.54;99030.81;4446642;32;35008;-66
2021/12/25 08:05:48;;;;;;;;;;;;;;;4.73;81.86;99028.44;4449391;32;34520;-66
2021/12/25 08:08:16;;;;;;;;;;;;;;;4.55;82.77;99021.41;4451724;32;33091;-66
2021/12/25 08:10:43;;;;;;;;;;;;;;;4.33;84.39;99030.47;4444578;32;33813;-67
2021/12/25 08:13:13;;;;;;;;;;;;;;;4.15;85.94;99022.59;4453805;32;34142;-66
2021/12/25 08:15:41;;;;;;;;;;;;;;;4.26;86.09;99029.22;4452067;32;34454;-66
2021/12/25 08:18:09;;;;;;;;;;;;;;;4.51;85.51;99036.62;4448240;32;34046;-64
2021/12/25 08:20:52;;;;;;;;;;;;;;;4.84;84.50;99034.16;4438352;32;32143;-63
2021/12/25 08:23:39;;;;;;;;;;;;;;;5.44;81.56;99034.78;4453326;32;33992;-63
2021/12/25 08:26:14;;;;;;;;;;;;;;;5.44;81.14;99039.06;4451971;32;34051;-64
2021/12/25 08:28:44;;;;;;;;;;;;;;;5.99;79.38;99031.66;4441114;32;33766;-64
2021/12/25 08:31:30;;;;;;;;;;;;;;;5.81;79.03;99035.81;4446341;32;34969;-64
2021/12/25 08:34:00;;;;;;;;;;;;;;;6.17;77.74;99029.12;4449890;32;33496;-64
2021/12/25 08:36:29;;;;;;;;;;;;;;;5.64;80.28;99023.00;4431957;32;34118;-64
2021/12/25 08:38:56;;;;;;;;;;;;;;;5.69;79.47;99011.25;4449689;32;34411;-63
2021/12/25 08:41:28;;;;;;;;;;;;;;;5.53;80.17;99008.72;4454500;32;33972;-63
2021/12/25 08:44:06;;;;;;;;;;;;;;;5.43;80.63;99002.22;4452235;32;34550;-63
2021/12/25 08:46:54;;;;;;;;;;;;;;;5.49;81.23;98996.53;4442096;32;34042;-66
2021/12/25 08:49:24;;;;;;;;;;;;;;;5.46;81.28;98993.78;4451630;32;34157;-67
2021/12/25 08:51:52;;;;;;;;;;;;;;;5.80;80.58;99004.13;4450464;32;34257;-63
2021/12/25 08:54:19;;;;;;;;;;;;;;;5.84;80.61;98994.87;4445189;32;34931;-63
2021/12/25 08:56:46;;;;;;;;;;;;;;;6.10;80.36;98994.53;4449934;32;33963;-63
2021/12/25 08:59:14;;;;;;;;;;;;;;;6.00;81.67;98992.28;4439891;32;33824;-63
2021/12/25 09:01:41;;;;;;;;;;;;;;;5.66;83.63;98981.97;4426939;32;34490;-63
2021/12/25 09:04:08;;;;;;;;;;;;;;;6.04;82.88;98983.91;4444965;32;33543;-63
2021/12/25 09:06:38;;;;;;;;;;;;;;;6.20;81.23;99006.16;4451339;32;34339;-63
2021/12/25 09:09:06;;;;;;;;;;;;;;;5.92;82.62;99009.00;4448806;32;33551;-63
2021/12/25 09:11:34;;;;;;;;;;;;;;;5.98;82.94;99009.31;4447608;32;34594;-63
2021/12/25 09:14:01;;;;;;;;;;;;;;;5.73;83.56;99007.16;4452928;32;33683;-63
2021/12/25 09:16:29;;;;;;;;;;;;;;;5.83;83.53;99013.66;4451937;32;34160;-63
2021/12/25 09:18:56;;;;;;;;;;;;;;;5.85;83.55;99007.81;4438475;32;34060;-62
2021/12/25 09:21:23;;;;;;;;;;;;;;;6.16;83.41;98998.19;4446996;32;33648;-62
2021/12/25 09:23:51;;;;;;;;;;;;;;;6.55;82.56;98993.19;4450642;32;34689;-62
2021/12/25 09:26:18;;;;;;;;;;;;;;;6.53;82.21;98992.25;4452448;32;34041;-63
2021/12/25 09:28:46;;;;;;;;;;;;;;;6.44;82.69;98991.00;4450749;32;33425;-63
2021/12/25 09:31:13;;;;;;;;;;;;;;;7.13;80.54;98983.06;4439463;32;34128;-63
2021/12/25 09:33:40;;;;;;;;;;;;;;;7.16;80.14;98979.72;4445774;32;34924;-63
2021/12/25 09:36:15;;;;;;;;;;;;;;;7.54;78.62;98984.00;4441698;32;33860;-64
2021/12/25 09:38:42;;;;;;;;;;;;;;;7.73;77.73;98985.69;4451731;32;33143;-63
2021/12/25 09:41:09;;;;;;;;;;;;;;;8.06;76.27;98986.22;4437232;32;35413;-63
2021/12/25 09:43:39;;;;;;;;;;;;;;;8.67;74.02;98971.44;4447168;32;33980;-62
2021/12/25 09:46:09;;;;;;;;;;;;;;;8.57;74.51;98971.91;4435459;32;32528;-63
2021/12/25 09:48:36;;;;;;;;;;;;;;;8.66;73.81;98970.56;4436444;32;33287;-64
2021/12/25 09:51:06;;;;;;;;;;;;;;;7.63;77.37;98979.25;4450753;32;32814;-63
2021/12/25 09:53:34;;;;;;;;;;;;;;;8.50;74.91;98972.50;4434808;32;32542;-63
2021/12/25 09:56:02;;;;;;;;;;;;;;;8.25;75.11;98971.50;4446190;32;32996;-63
2021/12/25 09:58:29;;;;;;;;;;;;;;;7.75;77.42;98968.56;4446715;32;34048;-64
2021/12/25 10:00:57;;;;;;;;;;;;;;;8.85;73.14;98964.44;4448327;32;34222;-63
2021/12/25 10:03:30;;;;;;;;;;;;;;;8.72;72.65;98969.94;4437163;32;35084;-63
2021/12/25 10:05:57;;;;;;;;;;;;;;;8.66;73.24;98969.72;4426102;32;34421;-63
2021/12/25 10:08:25;;;;;;;;;;;;;;;9.14;71.65;98964.63;4450393;32;33455;-64
2021/12/25 10:10:54;;;;;;;;;;;;;;;9.49;69.96;98967.62;4438776;32;34912;-63
2021/12/25 10:13:21;;;;;;;;;;;;;;;9.81;68.99;98967.84;4451294;32;34065;-65
2021/12/25 10:15:49;;;;;;;;;;;;;;;9.65;69.90;98963.87;4445114;32;33873;-64
2021/12/25 10:18:24;;;;;;;;;;;;;;;9.88;69.87;98962.06;4427793;32;33209;-64
2021/12/25 10:20:51;;;;;;;;;;;;;;;10.08;69.26;98954.09;4451652;32;33974;-65
2021/12/25 10:23:25;;;;;;;;;;;;;;;10.32;68.33;98965.28;4435111;32;32158;-63
2021/12/25 10:25:55;;;;;;;;;;;;;;;10.41;68.46;98969.84;4433617;32;33328;-64
2021/12/25 10:28:36;;;;;;;;;;;;;;;10.33;69.35;98961.84;4448920;32;32011;-63
2021/12/25 10:31:04;;;;;;;;;;;;;;;10.65;68.90;98958.53;4443993;32;34263;-63
2021/12/25 10:33:44;;;;;;;;;;;;;;;10.56;69.00;98962.56;4444285;32;34110;-63
2021/12/25 10:36:26;;;;;;;;;;;;;;;10.85;67.66;98954.81;4450794;32;34626;-63
2021/12/25 10:39:01;;;;;;;;;;;;;;;11.35;64.16;98945.03;4442078;32;33889;-63
2021/12/25 10:41:28;;;;;;;;;;;;;;;10.92;66.64;98948.13;4450160;32;34602;-62
2021/12/25 10:44:14;;;;;;;;;;;;;;;11.18;66.26;98952.38;4452087;32;34122;-62
2021/12/25 10:46:46;;;;;;;;;;;;;;;11.36;65.83;98938.16;4451085;32;33441;-63
2021/12/25 10:49:13;;;;;;;;;;;;;;;11.49;65.62;98929.88;4452201;32;33655;-62
2021/12/25 10:51:40;;;;;;;;;;;;;;;11.79;64.03;98927.19;4447946;32;34041;-62
2021/12/25 10:54:11;;;;;;;;;;;;;;;11.72;64.59;98934.78;4450299;32;32881;-63
2021/12/25 10:56:42;;;;;;;;;;;;;;;11.66;65.73;98930.31;4451439;32;33918;-63
2021/12/25 10:59:13;;;;;;;;;;;;;;;11.58;65.95;98931.84;4446404;32;33452;-63
2021/12/25 11:01:49;;;;;;;;;;;;;;;11.80;65.82;98921.19;4444100;32;34058;-63
2021/12/25 11:04:30;;;;;;;;;;;;;;;11.60;66.60;98920.66;4447026;32;34283;-63
2021/12/25 11:06:58;;;;;;;;;;;;;;;11.97;65.28;98916.44;4447928;32;34075;-63
2021/12/25 11:09:26;;;;;;;;;;;;;;;12.11;64.75;98915.91;4451735;32;33804;-63
2021/12/25 11:12:12;;;;;;;;;;;;;;;12.30;63.28;98910.31;4429243;32;33953;-63
2021/12/25 11:14:39;;;;;;;;;;;;;;;12.08;64.68;98908.91;4445554;32;34059;-63
2021/12/25 11:17:21;;;;;;;;;;;;;;;12.49;62.83;98900.34;4435626;32;33918;-63
2021/12/25 11:19:58;;;;;;;;;;;;;;;12.64;61.91;98899.81;4448304;32;33357;-64
2021/12/25 11:22:25;;;;;;;;;;;;;;;11.85;64.54;98894.47;4446908;32;35220;-63
2021/12/25 11:24:54;;;;;;;;;;;;;;;12.11;63.84;98889.94;4449626;32;34052;-62
2021/12/25 11:27:22;;;;;;;;;;;;;;;12.49;62.12;98884.75;4453857;32;34329;-63
2021/12/25 11:29:49;;;;;;;;;;;;;;;12.30;63.04;98879.13;4440619;32;33090;-63
2021/12/25 11:32:18;;;;;;;;;;;;;;;12.21;64.02;98876.34;4425476;32;34637;-63
2021/12/25 11:34:45;;;;;;;;;;;;;;;12.24;64.42;98873.81;4452864;32;33949;-63
2021/12/25 11:37:13;;;;;;;;;;;;;;;11.95;65.02;98878.31;4449745;32;34741;-63
2021/12/25 11:39:41;;;;;;;;;;;;;;;11.58;66.07;98869.59;4439751;32;33371;-65
2021/12/25 11:42:10;;;;;;;;;;;;;;;11.91;64.84;98861.78;4454199;32;33906;-63
2021/12/25 11:44:42;;;;;;;;;;;;;;;11.99;64.01;98867.16;4439813;32;34289;-64
2021/12/25 11:47:27;;;;;;;;;;;;;;;12.04;63.91;98855.19;4451433;32;34030;-63
2021/12/25 11:49:55;;;;;;;;;;;;;;;12.81;61.44;98850.81;4425479;32;783972;-64
2021/12/25 11:52:27;;;;;;;;;;;;;;;12.74;60.86;98850.66;4444043;32;33964;-63
2021/12/25 11:57:47;;;;;;;;;;;;;;;12.81;60.39;98841.28;4447714;32;33696;-63
2021/12/25 12:00:32;;;;;;;;;;;;;;;12.96;60.40;98840.69;4423159;32;33971;-64
2021/12/25 12:02:59;;;;;;;;;;;;;;;12.99;59.97;98840.78;4442868;32;36185;-64
2021/12/25 12:05:29;;;;;;;;;;;;;;;12.83;61.09;98834.41;4432766;32;34235;-63
2021/12/25 12:08:07;;;;;;;;;;;;;;;12.84;61.26;98840.47;4448357;32;34040;-65
2021/12/25 12:10:42;;;;;;;;;;;;;;;13.31;58.63;98843.16;4440084;32;31895;-64
2021/12/25 12:13:22;;;;;;;;;;;;;;;13.39;57.94;98846.78;4423472;32;36550;-63
2021/12/25 12:15:53;;;;;;;;;;;;;;;13.05;60.18;98840.88;4413647;32;34778;-64
2021/12/25 12:18:24;;;;;;;;;;;;;;;13.21;58.30;98849.84;4437904;32;34446;-64
2021/12/25 12:21:08;;;;;;;;;;;;;;;13.14;58.97;98853.19;4436088;32;33356;-64
2021/12/25 12:26:45;;;;;;;;;;;;;;;13.06;59.36;98845.25;4437106;32;33767;-63
2021/12/25 12:29:12;;;;;;;;;;;;;;;13.03;59.27;98846.91;4441860;32;34837;-63
2021/12/25 12:31:44;;;;;;;;;;;;;;;13.09;59.32;98847.03;4451253;32;33333;-63
2021/12/25 12:34:30;;;;;;;;;;;;;;;12.96;59.24;98845.91;4435791;32;34761;-63
2021/12/25 12:37:16;;;;;;;;;;;;;;;12.51;60.77;98836.31;4436899;32;32727;-64
2021/12/25 12:39:57;;;;;;;;;;;;;;;12.82;59.54;98842.16;4442951;32;34728;-63
2021/12/25 12:42:50;;;;;;;;;;;;;;;13.08;58.87;98845.28;4435782;32;32285;-64
2021/12/25 12:45:19;;;;;;;;;;;;;;;13.29;59.03;98845.69;4422014;32;34637;-62
2021/12/25 12:48:06;;;;;;;;;;;;;;;13.40;58.99;98853.72;4435371;32;34303;-63
2021/12/25 12:50:33;;;;;;;;;;;;;;;13.37;59.38;98853.66;4436094;32;34134;-63
2021/12/25 12:53:02;;;;;;;;;;;;;;;13.28;59.28;98848.25;4435127;32;32849;-62
2021/12/25 12:55:30;;;;;;;;;;;;;;;13.39;58.90;98846.78;4437652;32;32238;-63
2021/12/25 12:58:06;;;;;;;;;;;;;;;13.51;58.53;98846.97;4434422;32;34222;-63
2021/12/25 13:00:35;;;;;;;;;;;;;;;13.49;58.74;98842.59;4438056;32;32185;-63
2021/12/25 13:03:02;;;;;;;;;;;;;;;13.54;58.61;98844.44;4437966;32;33200;-65
2021/12/25 13:05:33;;;;;;;;;;;;;;;13.58;58.41;98845.38;4439439;32;34609;-63
2021/12/25 13:08:08;;;;;;;;;;;;;;;13.73;58.15;98847.34;4449205;32;34169;-63
2021/12/25 13:10:40;;;;;;;;;;;;;;;13.53;58.98;98847.88;4438619;32;35022;-63
2021/12/25 13:13:09;;;;;;;;;;;;;;;13.36;59.20;98846.69;4449007;32;33100;-64
2021/12/25 13:15:36;;;;;;;;;;;;;;;13.51;58.92;98833.97;4446157;32;33922;-63
2021/12/25 13:18:04;;;;;;;;;;;;;;;13.66;59.00;98828.16;4448556;32;35005;-64
2021/12/25 13:20:37;;;;;;;;;;;;;;;13.45;59.97;98820.84;4448216;32;35061;-64
2021/12/25 13:23:06;;;;;;;;;;;;;;;13.47;60.17;98816.56;4450649;32;33515;-64
2021/12/25 13:25:34;;;;;;;;;;;;;;;13.70;59.57;98831.69;4448126;32;34226;-63
2021/12/25 13:28:03;;;;;;;;;;;;;;;13.67;59.50;98831.62;4449639;32;34135;-64
2021/12/25 13:30:31;;;;;;;;;;;;;;;13.57;59.93;98823.66;4449102;32;34241;-63
2021/12/25 13:33:11;;;;;;;;;;;;;;;13.43;60.48;98829.50;4430405;32;33427;-65
2021/12/25 13:35:39;;;;;;;;;;;;;;;13.27;60.76;98825.69;4438772;32;34082;-64
2021/12/25 13:38:06;;;;;;;;;;;;;;;13.31;60.90;98832.75;4447601;32;34217;-63
2021/12/25 13:40:34;;;;;;;;;;;;;;;13.34;60.72;98827.59;4450919;32;34352;-63
2021/12/25 13:43:05;;;;;;;;;;;;;;;13.11;61.40;98830.59;4444630;32;34584;-63
2021/12/25 13:45:35;;;;;;;;;;;;;;;13.24;61.13;98836.06;4448113;32;33951;-63
2021/12/25 13:48:06;;;;;;;;;;;;;;;13.07;61.57;98834.00;4447947;32;34918;-63
2021/12/25 13:50:34;;;;;;;;;;;;;;;13.03;61.58;98829.59;4448899;32;34614;-63
2021/12/25 13:53:06;;;;;;;;;;;;;;;12.94;62.07;98827.69;4445705;32;32992;-63
2021/12/25 13:55:34;;;;;;;;;;;;;;;12.87;62.43;98819.75;4448994;32;34657;-64
2021/12/25 13:58:06;;;;;;;;;;;;;;;12.88;62.16;98821.50;4441751;32;34722;-63
2021/12/25 14:00:35;;;;;;;;;;;;;;;12.89;62.77;98824.12;4443249;32;35267;-63
2021/12/25 14:03:05;;;;;;;;;;;;;;;12.76;62.65;98827.31;4450171;32;33304;-65
2021/12/25 14:05:33;;;;;;;;;;;;;;;12.76;62.46;98838.59;4450360;32;33975;-65
2021/12/25 14:08:01;;;;;;;;;;;;;;;12.70;62.37;98835.87;4446760;32;33964;-64
2021/12/25 14:10:29;;;;;;;;;;;;;;;12.74;62.27;98840.28;4449180;32;35207;-64
2021/12/25 14:12:57;;;;;;;;;;;;;;;12.66;62.43;98838.38;4444471;32;34434;-63
2021/12/25 14:15:26;;;;;;;;;;;;;;;12.57;62.65;98846.84;4444367;32;35860;-65
2021/12/25 14:17:54;;;;;;;;;;;;;;;12.64;62.63;98846.12;4432830;32;32914;-64
2021/12/25 14:20:26;;;;;;;;;;;;;;;12.81;62.00;98841.28;4433721;32;34303;-63
2021/12/25 14:23:08;;;;;;;;;;;;;;;12.58;62.62;98843.41;4448855;32;33520;-65
2021/12/25 14:25:40;;;;;;;;;;;;;;;12.70;62.20;98843.66;4435072;32;31849;-63
2021/12/25 14:28:18;;;;;;;;;;;;;;;12.52;62.95;98853.69;4453853;32;34725;-63
2021/12/25 14:31:05;;;;;;;;;;;;;;;12.51;62.71;98849.31;4419279;32;35067;-63
2021/12/25 14:33:34;;;;;;;;;;;;;;;12.42;62.84;98852.59;4447852;32;33346;-63
2021/12/25 14:36:07;;;;;;;;;;;;;;;12.41;62.66;98855.16;4444452;32;33594;-63
2021/12/25 14:38:36;;;;;;;;;;;;;;;12.28;63.34;98854.00;4446396;32;34213;-63